sensor_id;sensor_type;location;lat;lon;timestamp;temperature;humidity
9973;DHT22;5027;53.560;10.062;2022-10-23T00:00:07;17.30;99.90
9973;DHT22;5027;53.560;10.062;2022-10-23T00:02:34;17.30;99.90
9973;DHT22;5027;53.560;10.062;2022-10-23T00:05:01;17.30;99.90
9973;DHT22;5027;53.560;10.062;2022-10-23T00:07:28;17.30;99.90
9973;DHT22;5027;53.560;10.062;2022-10-23T00:09:59;17.40;99.90
9973;DHT22;5027;53.560;10.062;2022-10-23T00:12:26;17.40;99.90
9973;DHT22;5027;53.560;10.062;2022-10-23T00:14:53;17.30;99.90
9973;DHT22;5027;53.560;10.062;2022-10-23T00:17:20;17.30;99.90
9973;DHT22;5027;53.560;10.062;2022-10-23T00:19:46;17.30;99.90
9973;DHT22;5027;53.560;10.062;2022-10-23T00:22:13;17.30;99.90
9973;DHT22;5027;53.560;10.062;2022-10-23T00:24:40;17.30;99.90
9973;DHT22;5027;53.560;10.062;2022-10-23T00:27:06;17.20;99.90
9973;DHT22;5027;53.560;10.062;2022-10-23T00:29:33;17.20;99.90
9973;DHT22;5027;53.560;10.062;2022-10-23T00:32:00;17.20;99.90
9973;DHT22;5027;53.560;10.062;2022-10-23T00:34:27;17.20;99.90
9973;DHT22;5027;53.560;10.062;2022-10-23T00:36:54;17.20;99.90
9973;DHT22;5027;53.560;10.062;2022-10-23T00:39:20;17.20;99.90
9973;DHT22;5027;53.560;10.062;2022-10-23T00:41:47;17.20;99.90
9973;DHT22;5027;53.560;10.062;2022-10-23T00:46:43;17.20;99.90
9973;DHT22;5027;53.560;10.062;2022-10-23T00:49:12;17.20;99.90
9973;DHT22;5027;53.560;10.062;2022-10-23T00:51:47;17.20;99.90
9973;DHT22;5027;53.560;10.062;2022-10-23T00:54:17;17.20;99.90
9973;DHT22;5027;53.560;10.062;2022-10-23T00:56:52;17.20;99.90
9973;DHT22;5027;53.560;10.062;2022-10-23T00:59:21;17.20;99.90
9973;DHT22;5027;53.560;10.062;2022-10-23T01:01:48;17.20;99.90
9973;DHT22;5027;53.560;10.062;2022-10-23T01:04:15;17.20;99.90
9973;DHT22;5027;53.560;10.062;2022-10-23T01:10:14;17.20;99.90
9973;DHT22;5027;53.560;10.062;2022-10-23T01:13:10;17.20;99.90
9973;DHT22;5027;53.560;10.062;2022-10-23T01:15:43;17.20;99.90
9973;DHT22;5027;53.560;10.062;2022-10-23T01:19:02;17.10;99.90
9973;DHT22;5027;53.560;10.062;2022-10-23T01:21:34;17.10;99.90
9973;DHT22;5027;53.560;10.062;2022-10-23T01:24:15;17.00;99.90
9973;DHT22;5027;53.560;10.062;2022-10-23T01:27:12;17.00;99.90
9973;DHT22;5027;53.560;10.062;2022-10-23T01:29:55;17.00;99.90
9973;DHT22;5027;53.560;10.062;2022-10-23T01:33:23;17.00;99.90
9973;DHT22;5027;53.560;10.062;2022-10-23T01:35:29;17.00;99.90
9973;DHT22;5027;53.560;10.062;2022-10-23T01:38:15;17.10;99.90
9973;DHT22;5027;53.560;10.062;2022-10-23T01:40:52;17.10;99.90
9973;DHT22;5027;53.560;10.062;2022-10-23T01:43:27;17.00;99.90
9973;DHT22;5027;53.560;10.062;2022-10-23T01:45:59;17.00;99.90
9973;DHT22;5027;53.560;10.062;2022-10-23T01:48:28;17.00;99.90
9973;DHT22;5027;53.560;10.062;2022-10-23T01:50:59;17.00;99.90
9973;DHT22;5027;53.560;10.062;2022-10-23T01:53:29;17.10;99.90
9973;DHT22;5027;53.560;10.062;2022-10-23T01:56:02;17.10;99.90
9973;DHT22;5027;53.560;10.062;2022-10-23T01:58:30;17.10;99.90
9973;DHT22;5027;53.560;10.062;2022-10-23T02:01:02;17.10;99.90
9973;DHT22;5027;53.560;10.062;2022-10-23T02:03:36;17.10;99.90
9973;DHT22;5027;53.560;10.062;2022-10-23T02:06:05;17.10;99.90
9973;DHT22;5027;53.560;10.062;2022-10-23T02:08:32;17.10;99.90
9973;DHT22;5027;53.560;10.062;2022-10-23T02:11:10;17.00;99.90
9973;DHT22;5027;53.560;10.062;2022-10-23T02:14:03;17.00;99.90
9973;DHT22;5027;53.560;10.062;2022-10-23T02:16:41;17.00;99.90
9973;DHT22;5027;53.560;10.062;2022-10-23T02:19:30;16.90;99.90
9973;DHT22;5027;53.560;10.062;2022-10-23T02:22:23;16.90;99.90
9973;DHT22;5027;53.560;10.062;2022-10-23T02:25:09;17.00;99.90
9973;DHT22;5027;53.560;10.062;2022-10-23T02:27:41;17.00;99.90
9973;DHT22;5027;53.560;10.062;2022-10-23T02:30:13;17.00;99.90
9973;DHT22;5027;53.560;10.062;2022-10-23T02:32:50;17.00;99.90
9973;DHT22;5027;53.560;10.062;2022-10-23T02:35:19;17.00;99.90
9973;DHT22;5027;53.560;10.062;2022-10-23T02:37:58;16.90;99.90
9973;DHT22;5027;53.560;10.062;2022-10-23T02:40:37;17.00;99.90
9973;DHT22;5027;53.560;10.062;2022-10-23T02:43:12;17.00;99.90
9973;DHT22;5027;53.560;10.062;2022-10-23T02:46:00;16.90;99.90
9973;DHT22;5027;53.560;10.062;2022-10-23T02:48:40;16.90;99.90
9973;DHT22;5027;53.560;10.062;2022-10-23T02:51:17;16.90;99.90
9973;DHT22;5027;53.560;10.062;2022-10-23T02:54:07;16.90;99.90
9973;DHT22;5027;53.560;10.062;2022-10-23T02:56:54;16.90;99.90
9973;DHT22;5027;53.560;10.062;2022-10-23T02:59:34;16.90;99.90
9973;DHT22;5027;53.560;10.062;2022-10-23T03:02:20;16.80;99.90
9973;DHT22;5027;53.560;10.062;2022-10-23T03:04:48;16.90;99.90
9973;DHT22;5027;53.560;10.062;2022-10-23T03:07:17;16.90;99.90
9973;DHT22;5027;53.560;10.062;2022-10-23T03:09:45;16.90;99.90
9973;DHT22;5027;53.560;10.062;2022-10-23T03:12:13;16.90;99.90
9973;DHT22;5027;53.560;10.062;2022-10-23T03:14:39;16.90;99.90
9973;DHT22;5027;53.560;10.062;2022-10-23T03:17:06;16.90;99.90
9973;DHT22;5027;53.560;10.062;2022-10-23T03:19:33;16.90;99.90
9973;DHT22;5027;53.560;10.062;2022-10-23T03:22:02;16.90;99.90
9973;DHT22;5027;53.560;10.062;2022-10-23T03:24:28;16.90;99.90
9973;DHT22;5027;53.560;10.062;2022-10-23T03:26:55;16.90;99.90
9973;DHT22;5027;53.560;10.062;2022-10-23T03:29:29;16.90;99.90
9973;DHT22;5027;53.560;10.062;2022-10-23T03:31:56;16.90;99.90
9973;DHT22;5027;53.560;10.062;2022-10-23T03:34:22;16.90;99.90
9973;DHT22;5027;53.560;10.062;2022-10-23T03:36:51;16.90;99.90
9973;DHT22;5027;53.560;10.062;2022-10-23T03:39:19;16.80;99.90
9973;DHT22;5027;53.560;10.062;2022-10-23T03:41:46;16.80;99.90
9973;DHT22;5027;53.560;10.062;2022-10-23T03:44:14;16.80;99.90
9973;DHT22;5027;53.560;10.062;2022-10-23T03:46:43;16.90;99.90
9973;DHT22;5027;53.560;10.062;2022-10-23T03:49:10;16.80;99.90
9973;DHT22;5027;53.560;10.062;2022-10-23T03:51:41;16.80;99.90
9973;DHT22;5027;53.560;10.062;2022-10-23T03:54:10;16.80;99.90
9973;DHT22;5027;53.560;10.062;2022-10-23T03:56:36;16.80;99.90
9973;DHT22;5027;53.560;10.062;2022-10-23T03:59:06;16.80;99.90
9973;DHT22;5027;53.560;10.062;2022-10-23T04:01:32;16.80;99.90
9973;DHT22;5027;53.560;10.062;2022-10-23T04:03:59;16.80;99.90
9973;DHT22;5027;53.560;10.062;2022-10-23T04:06:27;16.80;99.90
9973;DHT22;5027;53.560;10.062;2022-10-23T04:08:56;16.80;99.90
9973;DHT22;5027;53.560;10.062;2022-10-23T04:11:22;16.80;99.90
9973;DHT22;5027;53.560;10.062;2022-10-23T04:13:49;16.80;99.90
9973;DHT22;5027;53.560;10.062;2022-10-23T04:16:16;16.80;99.90
9973;DHT22;5027;53.560;10.062;2022-10-23T04:18:43;16.80;99.90
9973;DHT22;5027;53.560;10.062;2022-10-23T04:21:10;16.70;99.90
9973;DHT22;5027;53.560;10.062;2022-10-23T04:23:37;16.70;99.90
9973;DHT22;5027;53.560;10.062;2022-10-23T04:26:10;16.70;99.90
9973;DHT22;5027;53.560;10.062;2022-10-23T04:28:36;16.70;99.90
9973;DHT22;5027;53.560;10.062;2022-10-23T04:31:03;16.70;99.90
9973;DHT22;5027;53.560;10.062;2022-10-23T04:33:30;16.70;99.90
9973;DHT22;5027;53.560;10.062;2022-10-23T04:35:56;16.70;99.90
9973;DHT22;5027;53.560;10.062;2022-10-23T04:38:23;16.70;99.90
9973;DHT22;5027;53.560;10.062;2022-10-23T04:40:51;16.70;99.90
9973;DHT22;5027;53.560;10.062;2022-10-23T04:43:20;16.60;99.90
9973;DHT22;5027;53.560;10.062;2022-10-23T04:45:47;16.60;99.90
9973;DHT22;5027;53.560;10.062;2022-10-23T04:48:14;16.60;99.90
9973;DHT22;5027;53.560;10.062;2022-10-23T04:51:05;16.70;99.90
9973;DHT22;5027;53.560;10.062;2022-10-23T04:53:52;16.60;99.90
9973;DHT22;5027;53.560;10.062;2022-10-23T04:56:37;16.60;99.90
9973;DHT22;5027;53.560;10.062;2022-10-23T04:59:08;16.60;99.90
9973;DHT22;5027;53.560;10.062;2022-10-23T05:01:36;16.60;99.90
9973;DHT22;5027;53.560;10.062;2022-10-23T05:04:05;16.60;99.90
9973;DHT22;5027;53.560;10.062;2022-10-23T05:06:41;16.50;99.90
9973;DHT22;5027;53.560;10.062;2022-10-23T05:09:46;16.50;99.90
9973;DHT22;5027;53.560;10.062;2022-10-23T05:12:24;16.30;99.90
9973;DHT22;5027;53.560;10.062;2022-10-23T05:14:52;16.30;99.90
9973;DHT22;5027;53.560;10.062;2022-10-23T05:17:25;16.30;99.90
9973;DHT22;5027;53.560;10.062;2022-10-23T05:19:56;16.40;99.90
9973;DHT22;5027;53.560;10.062;2022-10-23T05:22:26;16.30;99.90
9973;DHT22;5027;53.560;10.062;2022-10-23T05:24:55;16.40;99.90
9973;DHT22;5027;53.560;10.062;2022-10-23T05:27:24;16.40;99.90
9973;DHT22;5027;53.560;10.062;2022-10-23T05:29:53;16.40;99.90
9973;DHT22;5027;53.560;10.062;2022-10-23T05:32:25;16.50;99.90
9973;DHT22;5027;53.560;10.062;2022-10-23T05:34:53;16.50;99.90
9973;DHT22;5027;53.560;10.062;2022-10-23T05:37:23;16.40;99.90
9973;DHT22;5027;53.560;10.062;2022-10-23T05:39:57;16.50;99.90
9973;DHT22;5027;53.560;10.062;2022-10-23T05:42:24;16.50;99.90
9973;DHT22;5027;53.560;10.062;2022-10-23T05:44:52;16.50;99.90
9973;DHT22;5027;53.560;10.062;2022-10-23T05:47:42;16.50;99.90
9973;DHT22;5027;53.560;10.062;2022-10-23T05:50:26;16.40;99.90
9973;DHT22;5027;53.560;10.062;2022-10-23T05:53:16;16.40;99.90
9973;DHT22;5027;53.560;10.062;2022-10-23T05:55:49;16.50;99.90
9973;DHT22;5027;53.560;10.062;2022-10-23T05:58:38;16.50;99.90
9973;DHT22;5027;53.560;10.062;2022-10-23T06:01:13;16.40;99.90
9973;DHT22;5027;53.560;10.062;2022-10-23T06:04:03;16.40;99.90
9973;DHT22;5027;53.560;10.062;2022-10-23T06:06:49;16.40;99.90
9973;DHT22;5027;53.560;10.062;2022-10-23T06:09:16;16.40;99.90
9973;DHT22;5027;53.560;10.062;2022-10-23T06:11:45;16.40;99.90
9973;DHT22;5027;53.560;10.062;2022-10-23T06:14:17;16.40;99.90
9973;DHT22;5027;53.560;10.062;2022-10-23T06:16:44;16.40;99.90
9973;DHT22;5027;53.560;10.062;2022-10-23T06:19:11;16.40;99.90
9973;DHT22;5027;53.560;10.062;2022-10-23T06:21:40;16.40;99.90
9973;DHT22;5027;53.560;10.062;2022-10-23T06:24:10;16.40;99.90
9973;DHT22;5027;53.560;10.062;2022-10-23T06:26:41;16.40;99.90
9973;DHT22;5027;53.560;10.062;2022-10-23T06:29:13;16.40;99.90
9973;DHT22;5027;53.560;10.062;2022-10-23T06:31:41;16.30;99.90
9973;DHT22;5027;53.560;10.062;2022-10-23T06:34:10;16.40;99.90
9973;DHT22;5027;53.560;10.062;2022-10-23T06:36:37;16.40;99.90
9973;DHT22;5027;53.560;10.062;2022-10-23T06:39:12;16.40;99.90
9973;DHT22;5027;53.560;10.062;2022-10-23T06:41:59;16.40;99.90
9973;DHT22;5027;53.560;10.062;2022-10-23T06:44:45;16.40;99.90
9973;DHT22;5027;53.560;10.062;2022-10-23T06:47:16;16.40;99.90
9973;DHT22;5027;53.560;10.062;2022-10-23T06:50:08;16.40;99.90
9973;DHT22;5027;53.560;10.062;2022-10-23T06:52:41;16.40;99.90
9973;DHT22;5027;53.560;10.062;2022-10-23T06:55:15;16.40;99.90
9973;DHT22;5027;53.560;10.062;2022-10-23T06:57:42;16.40;99.90
9973;DHT22;5027;53.560;10.062;2022-10-23T07:00:11;16.50;99.90
9973;DHT22;5027;53.560;10.062;2022-10-23T07:02:47;16.50;99.90
9973;DHT22;5027;53.560;10.062;2022-10-23T07:05:14;16.50;99.90
9973;DHT22;5027;53.560;10.062;2022-10-23T07:07:42;16.50;99.90
9973;DHT22;5027;53.560;10.062;2022-10-23T07:10:10;16.50;99.90
9973;DHT22;5027;53.560;10.062;2022-10-23T07:12:41;16.50;99.90
9973;DHT22;5027;53.560;10.062;2022-10-23T07:15:33;16.50;99.90
9973;DHT22;5027;53.560;10.062;2022-10-23T07:18:00;16.60;99.90
9973;DHT22;5027;53.560;10.062;2022-10-23T07:20:43;16.60;99.90
9973;DHT22;5027;53.560;10.062;2022-10-23T07:23:10;16.60;99.90
9973;DHT22;5027;53.560;10.062;2022-10-23T07:25:38;16.60;99.90
9973;DHT22;5027;53.560;10.062;2022-10-23T07:28:07;16.60;99.90
9973;DHT22;5027;53.560;10.062;2022-10-23T07:30:34;16.60;99.90
9973;DHT22;5027;53.560;10.062;2022-10-23T07:33:02;16.60;99.90
9973;DHT22;5027;53.560;10.062;2022-10-23T07:35:52;16.50;99.90
9973;DHT22;5027;53.560;10.062;2022-10-23T07:38:24;16.50;99.90
9973;DHT22;5027;53.560;10.062;2022-10-23T07:40:55;16.60;99.90
9973;DHT22;5027;53.560;10.062;2022-10-23T07:43:23;16.60;99.90
9973;DHT22;5027;53.560;10.062;2022-10-23T07:45:51;16.60;99.90
9973;DHT22;5027;53.560;10.062;2022-10-23T07:48:26;16.60;99.90
9973;DHT22;5027;53.560;10.062;2022-10-23T07:51:02;16.60;99.90
9973;DHT22;5027;53.560;10.062;2022-10-23T07:53:36;16.60;99.90
9973;DHT22;5027;53.560;10.062;2022-10-23T07:56:15;16.70;99.90
9973;DHT22;5027;53.560;10.062;2022-10-23T07:59:04;16.70;99.90
9973;DHT22;5027;53.560;10.062;2022-10-23T08:01:34;16.60;99.90
9973;DHT22;5027;53.560;10.062;2022-10-23T08:04:02;16.60;99.90
9973;DHT22;5027;53.560;10.062;2022-10-23T08:06:30;16.70;99.90
9973;DHT22;5027;53.560;10.062;2022-10-23T08:08:57;16.70;99.90
9973;DHT22;5027;53.560;10.062;2022-10-23T08:11:29;16.70;99.90
9973;DHT22;5027;53.560;10.062;2022-10-23T08:14:05;16.70;99.90
9973;DHT22;5027;53.560;10.062;2022-10-23T08:16:36;16.80;99.90
9973;DHT22;5027;53.560;10.062;2022-10-23T08:19:04;16.80;99.90
9973;DHT22;5027;53.560;10.062;2022-10-23T08:21:33;16.80;99.90
9973;DHT22;5027;53.560;10.062;2022-10-23T08:24:00;16.80;99.90
9973;DHT22;5027;53.560;10.062;2022-10-23T08:26:28;16.80;99.90
9973;DHT22;5027;53.560;10.062;2022-10-23T08:28:58;16.90;99.90
9973;DHT22;5027;53.560;10.062;2022-10-23T08:31:26;17.00;99.90
9973;DHT22;5027;53.560;10.062;2022-10-23T08:34:21;17.00;99.90
9973;DHT22;5027;53.560;10.062;2022-10-23T08:36:49;17.00;99.90
9973;DHT22;5027;53.560;10.062;2022-10-23T08:39:16;17.10;99.90
9973;DHT22;5027;53.560;10.062;2022-10-23T08:42:26;17.20;99.90
9973;DHT22;5027;53.560;10.062;2022-10-23T08:45:06;17.20;99.90
9973;DHT22;5027;53.560;10.062;2022-10-23T08:47:46;17.20;99.90
9973;DHT22;5027;53.560;10.062;2022-10-23T08:50:37;17.20;99.90
9973;DHT22;5027;53.560;10.062;2022-10-23T08:53:28;17.20;99.90
9973;DHT22;5027;53.560;10.062;2022-10-23T08:56:05;17.20;99.90
9973;DHT22;5027;53.560;10.062;2022-10-23T08:58:40;17.20;99.90
9973;DHT22;5027;53.560;10.062;2022-10-23T09:03:48;17.30;99.90
9973;DHT22;5027;53.560;10.062;2022-10-23T09:06:22;17.30;99.90
9973;DHT22;5027;53.560;10.062;2022-10-23T09:12:04;17.30;99.90
9973;DHT22;5027;53.560;10.062;2022-10-23T09:15:04;17.30;99.90
9973;DHT22;5027;53.560;10.062;2022-10-23T09:17:34;17.40;99.90
9973;DHT22;5027;53.560;10.062;2022-10-23T09:20:24;17.40;99.90
9973;DHT22;5027;53.560;10.062;2022-10-23T09:22:57;17.40;99.90
9973;DHT22;5027;53.560;10.062;2022-10-23T09:25:33;17.40;99.90
9973;DHT22;5027;53.560;10.062;2022-10-23T09:28:01;17.50;99.90
9973;DHT22;5027;53.560;10.062;2022-10-23T09:30:41;17.50;99.90
9973;DHT22;5027;53.560;10.062;2022-10-23T09:33:15;17.40;99.90
9973;DHT22;5027;53.560;10.062;2022-10-23T09:38:47;17.40;99.90
9973;DHT22;5027;53.560;10.062;2022-10-23T09:41:37;17.50;99.90
9973;DHT22;5027;53.560;10.062;2022-10-23T09:46:40;17.50;99.90
9973;DHT22;5027;53.560;10.062;2022-10-23T09:49:23;17.40;99.90
9973;DHT22;5027;53.560;10.062;2022-10-23T09:52:18;17.50;99.90
9973;DHT22;5027;53.560;10.062;2022-10-23T09:54:52;17.50;99.90
9973;DHT22;5027;53.560;10.062;2022-10-23T09:57:29;17.50;99.90
9973;DHT22;5027;53.560;10.062;2022-10-23T10:00:16;17.50;99.90
9973;DHT22;5027;53.560;10.062;2022-10-23T10:05:38;17.50;99.90
9973;DHT22;5027;53.560;10.062;2022-10-23T10:11:24;17.60;99.90
9973;DHT22;5027;53.560;10.062;2022-10-23T10:14:02;17.60;99.90
9973;DHT22;5027;53.560;10.062;2022-10-23T10:24:57;17.60;99.90
9973;DHT22;5027;53.560;10.062;2022-10-23T10:27:59;17.60;99.90
9973;DHT22;5027;53.560;10.062;2022-10-23T10:30:57;17.50;99.90
9973;DHT22;5027;53.560;10.062;2022-10-23T10:33:38;17.60;99.90
9973;DHT22;5027;53.560;10.062;2022-10-23T10:38:55;17.60;99.90
9973;DHT22;5027;53.560;10.062;2022-10-23T10:44:34;17.70;99.90
9973;DHT22;5027;53.560;10.062;2022-10-23T10:47:18;17.70;99.90
9973;DHT22;5027;53.560;10.062;2022-10-23T10:49:58;17.70;99.90
9973;DHT22;5027;53.560;10.062;2022-10-23T10:52:41;17.70;99.90
9973;DHT22;5027;53.560;10.062;2022-10-23T10:57:45;17.70;99.90
9973;DHT22;5027;53.560;10.062;2022-10-23T11:00:19;17.70;99.90
9973;DHT22;5027;53.560;10.062;2022-10-23T11:03:03;17.80;99.90
9973;DHT22;5027;53.560;10.062;2022-10-23T11:05:42;17.80;99.90
9973;DHT22;5027;53.560;10.062;2022-10-23T11:08:11;17.80;99.90
9973;DHT22;5027;53.560;10.062;2022-10-23T11:10:46;17.90;99.90
9973;DHT22;5027;53.560;10.062;2022-10-23T11:13:24;17.90;99.90
9973;DHT22;5027;53.560;10.062;2022-10-23T11:15:56;17.90;99.90
9973;DHT22;5027;53.560;10.062;2022-10-23T11:18:27;17.90;99.90
9973;DHT22;5027;53.560;10.062;2022-10-23T11:26:55;17.90;99.90
9973;DHT22;5027;53.560;10.062;2022-10-23T11:30:06;17.90;99.90
9973;DHT22;5027;53.560;10.062;2022-10-23T11:33:12;17.90;99.90
9973;DHT22;5027;53.560;10.062;2022-10-23T11:38:19;18.00;99.90
9973;DHT22;5027;53.560;10.062;2022-10-23T11:40:52;18.00;99.90
9973;DHT22;5027;53.560;10.062;2022-10-23T11:43:45;18.10;99.90
9973;DHT22;5027;53.560;10.062;2022-10-23T11:46:58;18.10;99.90
9973;DHT22;5027;53.560;10.062;2022-10-23T11:49:01;18.10;99.90
9973;DHT22;5027;53.560;10.062;2022-10-23T11:51:39;18.10;99.90
9973;DHT22;5027;53.560;10.062;2022-10-23T11:56:55;18.10;99.90
9973;DHT22;5027;53.560;10.062;2022-10-23T11:59:32;18.20;99.90
9973;DHT22;5027;53.560;10.062;2022-10-23T12:02:21;18.20;99.90
9973;DHT22;5027;53.560;10.062;2022-10-23T12:04:50;18.20;99.90
9973;DHT22;5027;53.560;10.062;2022-10-23T12:07:23;18.20;99.90
9973;DHT22;5027;53.560;10.062;2022-10-23T12:09:58;18.30;99.90
9973;DHT22;5027;53.560;10.062;2022-10-23T12:12:33;18.30;99.90
9973;DHT22;5027;53.560;10.062;2022-10-23T12:17:41;18.40;99.90
9973;DHT22;5027;53.560;10.062;2022-10-23T12:22:47;18.50;99.90
9973;DHT22;5027;53.560;10.062;2022-10-23T12:37:50;18.50;99.90
9973;DHT22;5027;53.560;10.062;2022-10-23T12:40:20;18.50;99.90
9973;DHT22;5027;53.560;10.062;2022-10-23T12:42:52;18.40;99.90
9973;DHT22;5027;53.560;10.062;2022-10-23T12:45:45;18.50;99.90
9973;DHT22;5027;53.560;10.062;2022-10-23T12:48:18;18.40;99.90
9973;DHT22;5027;53.560;10.062;2022-10-23T12:50:51;18.40;99.90
9973;DHT22;5027;53.560;10.062;2022-10-23T12:53:20;18.40;99.90
9973;DHT22;5027;53.560;10.062;2022-10-23T12:56:00;18.40;99.90
9973;DHT22;5027;53.560;10.062;2022-10-23T12:58:30;18.40;99.90
9973;DHT22;5027;53.560;10.062;2022-10-23T13:01:03;18.40;99.90
9973;DHT22;5027;53.560;10.062;2022-10-23T13:03:31;18.40;99.90
9973;DHT22;5027;53.560;10.062;2022-10-23T13:06:00;18.40;99.90
9973;DHT22;5027;53.560;10.062;2022-10-23T13:08:37;18.40;99.90
9973;DHT22;5027;53.560;10.062;2022-10-23T13:11:35;18.40;99.90
9973;DHT22;5027;53.560;10.062;2022-10-23T13:14:13;18.40;99.90
9973;DHT22;5027;53.560;10.062;2022-10-23T13:16:40;18.40;99.90
9973;DHT22;5027;53.560;10.062;2022-10-23T13:19:23;18.40;99.90
9973;DHT22;5027;53.560;10.062;2022-10-23T13:21:51;18.40;99.90
9973;DHT22;5027;53.560;10.062;2022-10-23T13:24:19;18.40;99.90
9973;DHT22;5027;53.560;10.062;2022-10-23T13:26:47;18.30;99.90
9973;DHT22;5027;53.560;10.062;2022-10-23T13:31:45;18.30;99.90
9973;DHT22;5027;53.560;10.062;2022-10-23T13:34:28;18.30;99.90
9973;DHT22;5027;53.560;10.062;2022-10-23T13:37:02;18.30;99.90
9973;DHT22;5027;53.560;10.062;2022-10-23T13:39:31;18.30;99.90
9973;DHT22;5027;53.560;10.062;2022-10-23T13:42:11;18.30;99.90
9973;DHT22;5027;53.560;10.062;2022-10-23T13:44:39;18.40;99.90
9973;DHT22;5027;53.560;10.062;2022-10-23T13:47:11;18.40;99.90
9973;DHT22;5027;53.560;10.062;2022-10-23T13:49:37;18.40;99.90
9973;DHT22;5027;53.560;10.062;2022-10-23T13:52:04;18.40;99.90
9973;DHT22;5027;53.560;10.062;2022-10-23T13:54:34;18.30;99.90
9973;DHT22;5027;53.560;10.062;2022-10-23T13:57:01;18.40;99.90
9973;DHT22;5027;53.560;10.062;2022-10-23T13:59:28;18.40;99.90
9973;DHT22;5027;53.560;10.062;2022-10-23T14:01:55;18.40;99.90
9973;DHT22;5027;53.560;10.062;2022-10-23T14:04:22;18.40;99.90
9973;DHT22;5027;53.560;10.062;2022-10-23T14:06:49;18.40;99.90
9973;DHT22;5027;53.560;10.062;2022-10-23T14:09:17;18.40;99.90
9973;DHT22;5027;53.560;10.062;2022-10-23T14:11:43;18.30;99.90
9973;DHT22;5027;53.560;10.062;2022-10-23T14:14:10;18.30;99.90
9973;DHT22;5027;53.560;10.062;2022-10-23T14:16:37;18.30;99.90
9973;DHT22;5027;53.560;10.062;2022-10-23T14:19:05;18.30;99.90
9973;DHT22;5027;53.560;10.062;2022-10-23T14:21:31;18.30;99.90
9973;DHT22;5027;53.560;10.062;2022-10-23T14:23:58;18.30;99.90
9973;DHT22;5027;53.560;10.062;2022-10-23T14:26:26;18.30;99.90
9973;DHT22;5027;53.560;10.062;2022-10-23T14:28:56;18.30;99.90
9973;DHT22;5027;53.560;10.062;2022-10-23T14:31:28;18.30;99.90
9973;DHT22;5027;53.560;10.062;2022-10-23T14:33:56;18.30;99.90
9973;DHT22;5027;53.560;10.062;2022-10-23T14:36:24;18.30;99.90
9973;DHT22;5027;53.560;10.062;2022-10-23T14:39:04;18.30;99.90
9973;DHT22;5027;53.560;10.062;2022-10-23T14:41:30;18.30;99.90
9973;DHT22;5027;53.560;10.062;2022-10-23T14:43:57;18.30;99.90
9973;DHT22;5027;53.560;10.062;2022-10-23T14:46:24;18.30;99.90
9973;DHT22;5027;53.560;10.062;2022-10-23T14:48:52;18.30;99.90
9973;DHT22;5027;53.560;10.062;2022-10-23T14:51:27;18.30;99.90
9973;DHT22;5027;53.560;10.062;2022-10-23T14:54:03;18.30;99.90
9973;DHT22;5027;53.560;10.062;2022-10-23T14:56:34;18.30;99.90
9973;DHT22;5027;53.560;10.062;2022-10-23T14:59:01;18.20;99.90
9973;DHT22;5027;53.560;10.062;2022-10-23T15:01:42;18.30;99.90
9973;DHT22;5027;53.560;10.062;2022-10-23T15:04:13;18.30;99.90
9973;DHT22;5027;53.560;10.062;2022-10-23T15:06:41;18.30;99.90
9973;DHT22;5027;53.560;10.062;2022-10-23T15:09:07;18.20;99.90
9973;DHT22;5027;53.560;10.062;2022-10-23T15:11:34;18.30;99.90
9973;DHT22;5027;53.560;10.062;2022-10-23T15:14:01;18.30;99.90
9973;DHT22;5027;53.560;10.062;2022-10-23T15:16:27;18.30;99.90
9973;DHT22;5027;53.560;10.062;2022-10-23T15:18:54;18.20;99.90
9973;DHT22;5027;53.560;10.062;2022-10-23T15:21:21;18.20;99.90
9973;DHT22;5027;53.560;10.062;2022-10-23T15:23:48;18.20;99.90
9973;DHT22;5027;53.560;10.062;2022-10-23T15:26:17;18.20;99.90
9973;DHT22;5027;53.560;10.062;2022-10-23T15:28:57;18.20;99.90
9973;DHT22;5027;53.560;10.062;2022-10-23T15:31:46;18.20;99.90
9973;DHT22;5027;53.560;10.062;2022-10-23T15:34:18;18.20;99.90
9973;DHT22;5027;53.560;10.062;2022-10-23T15:36:45;18.10;99.90
9973;DHT22;5027;53.560;10.062;2022-10-23T15:39:15;18.20;99.90
9973;DHT22;5027;53.560;10.062;2022-10-23T15:41:43;18.20;99.90
9973;DHT22;5027;53.560;10.062;2022-10-23T15:44:14;18.20;99.90
9973;DHT22;5027;53.560;10.062;2022-10-23T15:46:41;18.20;99.90
9973;DHT22;5027;53.560;10.062;2022-10-23T15:49:08;18.20;99.90
9973;DHT22;5027;53.560;10.062;2022-10-23T15:51:35;18.30;99.90
9973;DHT22;5027;53.560;10.062;2022-10-23T15:54:27;18.30;99.90
9973;DHT22;5027;53.560;10.062;2022-10-23T15:56:59;18.30;99.90
9973;DHT22;5027;53.560;10.062;2022-10-23T15:59:26;18.30;99.90
9973;DHT22;5027;53.560;10.062;2022-10-23T16:01:53;18.30;99.90
9973;DHT22;5027;53.560;10.062;2022-10-23T16:04:21;18.20;99.90
9973;DHT22;5027;53.560;10.062;2022-10-23T16:06:48;18.20;99.90
9973;DHT22;5027;53.560;10.062;2022-10-23T16:09:16;18.20;99.90
9973;DHT22;5027;53.560;10.062;2022-10-23T16:11:42;18.20;99.90
9973;DHT22;5027;53.560;10.062;2022-10-23T16:14:14;18.30;99.90
9973;DHT22;5027;53.560;10.062;2022-10-23T16:16:41;18.30;99.90
9973;DHT22;5027;53.560;10.062;2022-10-23T16:19:09;18.30;99.90
9973;DHT22;5027;53.560;10.062;2022-10-23T16:21:36;18.30;99.90
9973;DHT22;5027;53.560;10.062;2022-10-23T16:24:05;18.30;99.90
9973;DHT22;5027;53.560;10.062;2022-10-23T16:26:35;18.30;99.90
9973;DHT22;5027;53.560;10.062;2022-10-23T16:29:04;18.30;99.90
9973;DHT22;5027;53.560;10.062;2022-10-23T16:31:32;18.30;99.90
9973;DHT22;5027;53.560;10.062;2022-10-23T16:34:00;18.30;99.90
9973;DHT22;5027;53.560;10.062;2022-10-23T16:36:28;18.30;99.90
9973;DHT22;5027;53.560;10.062;2022-10-23T16:39:18;18.30;99.90
9973;DHT22;5027;53.560;10.062;2022-10-23T16:42:04;18.30;99.90
9973;DHT22;5027;53.560;10.062;2022-10-23T16:45:00;18.20;99.90
9973;DHT22;5027;53.560;10.062;2022-10-23T16:47:29;18.20;99.90
9973;DHT22;5027;53.560;10.062;2022-10-23T16:49:56;18.30;99.90
9973;DHT22;5027;53.560;10.062;2022-10-23T16:52:24;18.20;99.90
9973;DHT22;5027;53.560;10.062;2022-10-23T16:54:51;18.20;99.90
9973;DHT22;5027;53.560;10.062;2022-10-23T16:57:18;18.20;99.90
9973;DHT22;5027;53.560;10.062;2022-10-23T16:59:44;18.20;99.90
9973;DHT22;5027;53.560;10.062;2022-10-23T17:02:11;18.30;99.90
9973;DHT22;5027;53.560;10.062;2022-10-23T17:04:38;18.30;99.90
9973;DHT22;5027;53.560;10.062;2022-10-23T17:07:05;18.30;99.90
9973;DHT22;5027;53.560;10.062;2022-10-23T17:09:32;18.30;99.90
9973;DHT22;5027;53.560;10.062;2022-10-23T17:11:59;18.30;99.90
9973;DHT22;5027;53.560;10.062;2022-10-23T17:14:25;18.30;99.90
9973;DHT22;5027;53.560;10.062;2022-10-23T17:16:57;18.30;99.90
9973;DHT22;5027;53.560;10.062;2022-10-23T17:19:25;18.30;99.90
9973;DHT22;5027;53.560;10.062;2022-10-23T17:22:10;18.20;99.90
9973;DHT22;5027;53.560;10.062;2022-10-23T17:24:39;18.20;99.90
9973;DHT22;5027;53.560;10.062;2022-10-23T17:27:06;18.30;99.90
9973;DHT22;5027;53.560;10.062;2022-10-23T17:29:33;18.20;99.90
9973;DHT22;5027;53.560;10.062;2022-10-23T17:32:00;18.30;99.90
9973;DHT22;5027;53.560;10.062;2022-10-23T17:34:27;18.30;99.90